Time;durP1;ratioP1;P1;durP2;ratioP2;P2;SDS_P1;SDS_P2;PMS_P1;PMS_P2;Temp;Humidity;BMP_temperature;BMP_pressure;BME280_temperature;BME280_humidity;BME280_pressure;Samples;Min_cycle;Max_cycle;Signal;HPM_P1;HPM_P2
2021/12/07 00:01:35;;;;;;;40.57;14.90;;;0.90;99.90;;;;;;5075046;28;20608;-53
2021/12/07 00:04:01;;;;;;;39.57;17.03;;;0.90;99.90;;;;;;5074661;28;20228;-54
2021/12/07 00:06:27;;;;;;;36.43;14.67;;;0.90;99.90;;;;;;5093540;28;20174;-53
2021/12/07 00:08:55;;;;;;;40.60;16.10;;;0.90;99.90;;;;;;5092645;28;20597;-52
2021/12/07 00:11:29;;;;;;;41.03;16.10;;;1.00;99.90;;;;;;5075485;28;20229;-53
2021/12/07 00:13:57;;;;;;;42.60;15.87;;;0.90;99.90;;;;;;5092672;28;20313;-55
2021/12/07 00:16:25;;;;;;;40.87;16.23;;;0.90;99.90;;;;;;5092821;28;20195;-51
2021/12/07 00:18:51;;;;;;;35.40;15.23;;;0.90;99.90;;;;;;5092718;28;20217;-52
2021/12/07 00:21:18;;;;;;;38.83;15.83;;;1.00;99.90;;;;;;5092916;28;20183;-55
2021/12/07 00:23:45;;;;;;;36.13;15.30;;;1.00;99.90;;;;;;5092990;28;20182;-52
2021/12/07 00:26:12;;;;;;;36.80;15.70;;;1.00;99.90;;;;;;5092588;28;20712;-52
2021/12/07 00:28:39;;;;;;;28.37;11.70;;;1.00;99.90;;;;;;5092804;28;20678;-50
2021/12/07 00:31:13;;;;;;;32.67;14.37;;;1.10;99.90;;;;;;5074262;28;20177;-52
2021/12/07 00:34:09;;;;;;;32.80;14.53;;;1.10;99.90;;;;;;5092649;28;20186;-52
2021/12/07 00:36:28;;;;;;;31.77;14.17;;;1.10;99.90;;;;;;5091504;28;20190;-52
2021/12/07 00:38:54;;;;;;;35.37;14.57;;;1.10;99.90;;;;;;5092292;28;20607;-52
2021/12/07 00:41:20;;;;;;;31.67;12.97;;;1.10;99.90;;;;;;5074758;28;20651;-51
2021/12/07 00:43:45;;;;;;;33.03;14.83;;;1.10;99.90;;;;;;5074422;28;20207;-54
2021/12/07 00:46:12;;;;;;;33.80;14.80;;;1.20;99.90;;;;;;5073876;28;20520;-56
2021/12/07 00:48:37;;;;;;;35.63;13.73;;;1.20;99.90;;;;;;5092220;28;20192;-49
2021/12/07 00:51:03;;;;;;;31.93;14.07;;;1.20;99.90;;;;;;5091925;28;20594;-51
2021/12/07 00:53:29;;;;;;;29.20;12.00;;;1.20;99.90;;;;;;5092323;28;20173;-51
2021/12/07 00:55:59;;;;;;;27.40;12.00;;;1.20;99.90;;;;;;5092062;28;20198;-51
2021/12/07 00:58:27;;;;;;;34.63;12.20;;;1.20;99.90;;;;;;5092368;28;20294;-51
2021/12/07 01:00:59;;;;;;;31.33;14.40;;;1.20;99.90;;;;;;5091468;28;20203;-52
2021/12/07 01:03:26;;;;;;;32.67;12.27;;;1.20;99.90;;;;;;5092274;28;20194;-55
2021/12/07 01:06:02;;;;;;;26.47;12.43;;;1.20;99.90;;;;;;5091315;28;20184;-56
2021/12/07 01:25:09;;;;;;;28.13;11.17;;;1.20;99.90;;;;;;5092060;28;20217;-53
2021/12/07 01:27:36;;;;;;;28.00;12.67;;;1.20;99.90;;;;;;5091952;28;20221;-50
2021/12/07 01:30:37;;;;;;;26.87;11.70;;;1.20;99.90;;;;;;5091482;28;20195;-54
2021/12/07 01:33:37;;;;;;;25.03;9.80;;;1.20;99.90;;;;;;5090155;28;20216;-51
2021/12/07 01:41:25;;;;;;;28.53;12.73;;;1.20;99.90;;;;;;5091868;28;20209;-56
2021/12/07 01:44:12;;;;;;;28.47;11.57;;;1.20;99.90;;;;;;5091824;28;20191;-52
2021/12/07 01:47:24;;;;;;;20.97;10.00;;;1.20;99.90;;;;;;5091680;28;20192;-53
2021/12/07 02:00:09;;;;;;;23.47;11.63;;;1.10;99.90;;;;;;5089555;28;20209;-54
2021/12/07 02:02:35;;;;;;;24.10;11.13;;;1.10;99.90;;;;;;5089362;28;20502;-53
2021/12/07 02:05:01;;;;;;;24.57;10.83;;;1.10;99.90;;;;;;5089238;28;20646;-50
2021/12/07 02:07:27;;;;;;;18.60;9.33;;;1.10;99.90;;;;;;5089544;28;20176;-53
2021/12/07 02:09:57;;;;;;;27.50;11.93;;;1.10;99.90;;;;;;5089661;28;20283;-54
2021/12/07 02:12:23;;;;;;;29.77;13.17;;;1.10;99.90;;;;;;5089226;28;20236;-57
2021/12/07 02:14:49;;;;;;;23.87;11.87;;;1.10;99.90;;;;;;5090160;28;20709;-52
2021/12/07 02:17:22;;;;;;;25.33;11.40;;;1.10;99.90;;;;;;5091482;28;20276;-54
2021/12/07 02:19:48;;;;;;;26.30;11.37;;;1.10;99.90;;;;;;5095167;28;20216;-53
2021/12/07 02:22:14;;;;;;;27.97;12.47;;;1.00;99.90;;;;;;5094937;28;20182;-54
2021/12/07 02:24:40;;;;;;;26.67;11.23;;;1.00;99.90;;;;;;5095335;28;20766;-54
2021/12/07 02:27:06;;;;;;;24.03;10.97;;;1.00;99.90;;;;;;5094942;28;20659;-51
2021/12/07 02:29:32;;;;;;;24.40;11.43;;;1.00;99.90;;;;;;5095232;28;20182;-54
2021/12/07 02:32:00;;;;;;;22.40;10.77;;;1.00;99.90;;;;;;5094749;28;20273;-53
2021/12/07 02:34:26;;;;;;;27.47;11.37;;;1.00;99.90;;;;;;5094736;28;20189;-55
2021/12/07 02:36:53;;;;;;;24.03;11.97;;;1.00;99.90;;;;;;5094813;28;20276;-54
2021/12/07 02:39:32;;;;;;;21.03;10.53;;;1.00;99.90;;;;;;5094824;28;20203;-55
2021/12/07 02:41:58;;;;;;;26.70;11.13;;;1.00;99.90;;;;;;5094832;28;20672;-57
2021/12/07 02:44:24;;;;;;;22.70;10.30;;;1.00;99.90;;;;;;5094662;28;20189;-51
2021/12/07 02:46:50;;;;;;;27.07;12.03;;;1.00;99.90;;;;;;5094886;28;20180;-53
2021/12/07 02:49:16;;;;;;;19.57;9.83;;;1.10;99.90;;;;;;5094129;28;20251;-53
2021/12/07 02:51:41;;;;;;;23.03;11.30;;;1.10;99.90;;;;;;5077007;28;20228;-53
2021/12/07 02:54:07;;;;;;;22.67;10.70;;;1.00;99.90;;;;;;5094119;28;20214;-52
2021/12/07 02:56:33;;;;;;;24.37;10.33;;;1.00;99.90;;;;;;5094608;28;20539;-53
2021/12/07 02:59:03;;;;;;;28.17;12.97;;;1.00;99.90;;;;;;5094062;28;20212;-57
2021/12/07 03:01:33;;;;;;;24.90;12.57;;;1.00;99.90;;;;;;5074106;28;20197;-53
2021/12/07 03:06:42;;;;;;;24.40;11.20;;;1.00;99.90;;;;;;5074244;28;20514;-53
2021/12/07 03:09:48;;;;;;;23.83;10.73;;;1.00;99.90;;;;;;5041608;28;20192;-50
2021/12/07 03:28:17;;;;;;;21.13;10.40;;;0.90;99.90;;;;;;5073314;28;20540;-51
2021/12/07 03:30:43;;;;;;;24.03;10.77;;;0.80;99.90;;;;;;5072925;28;20203;-56
2021/12/07 03:33:09;;;;;;;27.10;10.40;;;0.80;99.90;;;;;;5072979;28;20194;-52
2021/12/07 03:35:36;;;;;;;24.73;12.40;;;0.80;99.90;;;;;;5073549;28;20209;-52
2021/12/07 03:38:03;;;;;;;27.00;11.03;;;0.80;99.90;;;;;;5073127;28;20211;-54
2021/12/07 03:40:30;;;;;;;23.47;11.07;;;0.70;99.90;;;;;;5073593;28;20191;-51
2021/12/07 03:42:56;;;;;;;22.70;11.43;;;0.70;99.90;;;;;;5073359;28;20682;-52
2021/12/07 03:45:22;;;;;;;27.20;10.87;;;0.70;99.90;;;;;;5054975;28;20240;-53
2021/12/07 03:47:48;;;;;;;19.80;10.57;;;0.70;99.90;;;;;;5073473;28;20182;-56
2021/12/07 03:50:14;;;;;;;27.30;13.07;;;0.70;99.90;;;;;;5072581;28;20597;-53
2021/12/07 03:52:40;;;;;;;24.73;11.60;;;0.70;99.90;;;;;;5073123;28;20661;-53
2021/12/07 03:55:07;;;;;;;24.57;11.77;;;0.70;99.90;;;;;;5054652;28;20177;-52
2021/12/07 03:57:32;;;;;;;31.23;12.40;;;0.70;99.90;;;;;;5072970;28;20309;-52
2021/12/07 04:00:00;;;;;;;23.20;11.63;;;0.70;99.90;;;;;;5080484;28;20219;-54
2021/12/07 04:02:26;;;;;;;32.70;11.60;;;0.70;99.90;;;;;;5092646;28;20195;-48
2021/12/07 04:04:59;;;;;;;25.87;12.53;;;0.70;99.90;;;;;;5074901;28;20675;-50
2021/12/07 04:07:25;;;;;;;24.17;11.53;;;0.70;99.90;;;;;;5092757;28;20173;-52
2021/12/07 04:09:52;;;;;;;28.87;13.70;;;0.70;99.90;;;;;;5093218;28;20183;-52
2021/12/07 04:12:17;;;;;;;27.83;12.57;;;0.70;99.90;;;;;;5092416;28;20178;-50
2021/12/07 04:14:43;;;;;;;30.97;13.47;;;0.70;99.90;;;;;;5092515;28;20903;-53
2021/12/07 04:17:09;;;;;;;29.40;12.90;;;0.60;99.90;;;;;;5092366;28;20571;-52
2021/12/07 04:19:35;;;;;;;26.17;12.23;;;0.60;99.90;;;;;;5092795;28;20201;-53
2021/12/07 04:22:00;;;;;;;28.53;13.37;;;0.70;99.90;;;;;;5092630;28;20189;-51
2021/12/07 04:24:27;;;;;;;28.93;12.70;;;0.70;99.90;;;;;;5092331;28;20242;-52
2021/12/07 04:26:56;;;;;;;28.80;12.30;;;0.60;99.90;;;;;;5092734;28;20201;-50
2021/12/07 04:29:22;;;;;;;31.67;13.03;;;0.60;99.90;;;;;;5091983;28;20189;-51
2021/12/07 04:31:48;;;;;;;26.60;13.53;;;0.60;99.90;;;;;;5092354;28;20395;-50
2021/12/07 04:34:14;;;;;;;29.47;12.67;;;0.70;99.90;;;;;;5092034;28;20187;-49
2021/12/07 04:36:39;;;;;;;28.43;12.80;;;0.60;99.90;;;;;;5074020;28;20235;-53
2021/12/07 04:39:05;;;;;;;28.33;13.13;;;0.60;99.90;;;;;;5091906;28;20205;-51
2021/12/07 04:41:33;;;;;;;25.43;12.63;;;0.70;99.90;;;;;;5091158;28;20299;-51
2021/12/07 04:44:01;;;;;;;25.87;13.67;;;0.70;99.90;;;;;;5074196;28;20277;-49
2021/12/07 04:46:50;;;;;;;26.10;12.43;;;0.60;99.90;;;;;;5091738;28;20178;-49
2021/12/07 05:00:16;;;;;;;31.67;13.73;;;0.70;99.90;;;;;;5051257;28;20198;-52
2021/12/07 05:02:46;;;;;;;28.93;13.33;;;0.70;99.90;;;;;;5087768;28;20225;-50
2021/12/07 05:05:14;;;;;;;29.30;13.70;;;0.70;99.90;;;;;;5091675;28;20266;-49
2021/12/07 05:07:47;;;;;;;36.13;15.80;;;0.70;99.90;;;;;;5073529;28;20195;-54
2021/12/07 05:10:21;;;;;;;33.00;13.77;;;0.70;99.90;;;;;;5091622;28;20191;-52
2021/12/07 05:18:37;;;;;;;25.10;13.50;;;0.70;99.90;;;;;;5091101;28;20664;-53
2021/12/07 05:24:01;;;;;;;27.90;13.67;;;0.60;99.90;;;;;;5091568;28;20600;-54
2021/12/07 05:39:55;;;;;;;24.93;11.47;;;0.60;99.90;;;;;;5090920;28;20211;-55
2021/12/07 05:42:24;;;;;;;28.53;12.87;;;0.60;99.90;;;;;;5086527;28;20536;-55
2021/12/07 05:44:54;;;;;;;26.00;12.43;;;0.60;99.90;;;;;;5088703;28;20276;-55
2021/12/07 05:47:20;;;;;;;27.63;11.63;;;0.70;99.90;;;;;;5069816;28;20219;-53
2021/12/07 05:49:46;;;;;;;24.23;12.37;;;0.70;99.90;;;;;;5068469;28;20203;-57
2021/12/07 05:52:12;;;;;;;24.37;12.23;;;0.70;99.90;;;;;;5069637;28;20595;-56
2021/12/07 05:54:38;;;;;;;27.83;13.77;;;0.70;99.90;;;;;;5091810;28;20346;-59
2021/12/07 05:57:05;;;;;;;35.10;14.53;;;0.60;99.90;;;;;;5092163;28;20177;-57
2021/12/07 05:59:31;;;;;;;27.80;13.63;;;0.60;99.90;;;;;;5091540;28;20210;-55
2021/12/07 06:01:57;;;;;;;24.10;11.63;;;0.60;99.90;;;;;;5092362;28;20866;-55
2021/12/07 06:04:22;;;;;;;26.20;13.10;;;0.60;99.90;;;;;;5074198;28;20265;-54
2021/12/07 06:06:48;;;;;;;28.13;13.03;;;0.60;99.90;;;;;;5091385;28;20264;-54
2021/12/07 06:09:14;;;;;;;24.67;12.03;;;0.60;99.90;;;;;;5091912;28;20202;-49
2021/12/07 06:11:42;;;;;;;25.87;12.17;;;0.60;99.90;;;;;;5092127;28;20578;-55
2021/12/07 06:14:11;;;;;;;49.30;15.63;;;0.60;99.90;;;;;;5092278;28;20308;-65
2021/12/07 06:16:37;;;;;;;23.87;12.50;;;0.60;99.90;;;;;;5092420;28;20182;-56
2021/12/07 06:19:02;;;;;;;24.70;11.40;;;0.50;99.90;;;;;;5092588;28;20277;-55
2021/12/07 06:21:29;;;;;;;25.13;11.87;;;0.50;99.90;;;;;;5074241;28;20683;-56
2021/12/07 06:23:56;;;;;;;31.87;14.70;;;0.50;99.90;;;;;;5073719;28;20180;-54
2021/12/07 06:26:22;;;;;;;31.07;13.20;;;0.40;99.90;;;;;;5074279;28;20201;-51
2021/12/07 06:28:48;;;;;;;33.53;13.93;;;0.40;99.90;;;;;;5086429;28;20182;-53
2021/12/07 06:31:14;;;;;;;32.47;13.90;;;0.50;99.90;;;;;;5080455;28;20243;-59
2021/12/07 06:33:40;;;;;;;26.37;12.57;;;0.50;99.90;;;;;;5071818;28;20187;-54
2021/12/07 06:36:08;;;;;;;26.50;12.60;;;0.50;99.90;;;;;;5071824;28;20181;-54
2021/12/07 06:38:34;;;;;;;52.90;16.80;;;0.50;99.90;;;;;;5071023;28;20203;-65
2021/12/07 06:41:03;;;;;;;28.67;11.87;;;0.40;99.90;;;;;;5070967;28;20204;-56
2021/12/07 06:43:29;;;;;;;26.80;12.77;;;0.40;99.90;;;;;;5038153;28;20218;-57
2021/12/07 06:45:55;;;;;;;19.83;10.70;;;0.40;99.90;;;;;;5055502;28;20186;-53
2021/12/07 06:48:21;;;;;;;27.60;12.67;;;0.40;99.90;;;;;;5073013;28;20643;-63
2021/12/07 06:50:48;;;;;;;29.63;13.53;;;0.40;99.90;;;;;;5073477;28;20186;-54
2021/12/07 06:53:14;;;;;;;27.20;13.17;;;0.40;99.90;;;;;;5072966;28;20179;-54
2021/12/07 06:55:40;;;;;;;27.27;12.37;;;0.40;99.90;;;;;;5073739;28;20194;-53
2021/12/07 06:58:06;;;;;;;32.03;14.80;;;0.40;99.90;;;;;;5073398;28;20207;-58
2021/12/07 07:00:33;;;;;;;29.30;13.83;;;0.40;99.90;;;;;;5093161;28;20196;-53
2021/12/07 07:02:59;;;;;;;33.17;15.90;;;0.40;99.90;;;;;;5092851;28;20537;-52
2021/12/07 07:05:25;;;;;;;40.30;16.27;;;0.40;99.90;;;;;;5090585;28;20188;-55
2021/12/07 07:07:51;;;;;;;36.00;15.77;;;0.40;99.90;;;;;;5092559;28;20215;-53
2021/12/07 07:10:18;;;;;;;33.50;13.47;;;0.40;99.90;;;;;;5073912;28;20190;-53
2021/12/07 07:12:45;;;;;;;22.90;11.03;;;0.40;99.90;;;;;;5092465;28;20252;-53
2021/12/07 07:15:12;;;;;;;32.60;14.30;;;0.40;99.90;;;;;;5091962;28;20633;-64
2021/12/07 07:17:39;;;;;;;22.20;9.33;;;0.40;99.90;;;;;;5092868;28;20259;-55
2021/12/07 07:20:09;;;;;;;25.37;11.47;;;0.40;99.90;;;;;;5093380;28;20209;-52
2021/12/07 07:22:35;;;;;;;28.80;12.20;;;0.40;99.90;;;;;;5074263;28;20327;-51
2021/12/07 07:25:01;;;;;;;33.20;13.77;;;0.40;99.90;;;;;;5092721;28;20178;-52
2021/12/07 07:27:27;;;;;;;26.57;12.50;;;0.50;99.90;;;;;;5074410;28;20193;-52
2021/12/07 07:29:52;;;;;;;29.77;12.73;;;0.40;99.90;;;;;;5074083;28;20194;-53
2021/12/07 07:32:18;;;;;;;0.53;0.53;;;0.50;99.90;;;;;;5092231;28;20197;-55
2021/12/07 07:34:44;;;;;;;2.07;1.90;;;0.50;99.90;;;;;;5092968;28;20170;-58
2021/12/07 07:37:10;;;;;;;0.77;0.77;;;0.40;99.90;;;;;;5092309;28;20181;-56
2021/12/07 07:39:35;;;;;;;2.20;2.00;;;0.40;99.90;;;;;;5057497;28;20607;-55
2021/12/07 07:42:01;;;;;;;1.17;1.13;;;0.50;99.90;;;;;;5092932;28;20193;-58
2021/12/07 07:44:27;;;;;;;1.57;1.33;;;0.50;99.90;;;;;;5091994;28;20183;-55
2021/12/07 07:46:53;;;;;;;1.40;1.03;;;0.50;99.90;;;;;;5074807;28;20637;-57
2021/12/07 07:49:18;;;;;;;1.77;1.67;;;0.40;99.90;;;;;;5091923;28;20552;-55
2021/12/07 07:51:44;;;;;;;2.40;0.83;;;0.40;99.90;;;;;;5074865;28;20185;-56
2021/12/07 07:54:10;;;;;;;3.60;2.07;;;0.50;99.90;;;;;;5092134;28;20170;-65
2021/12/07 07:56:36;;;;;;;0.77;0.77;;;0.40;99.90;;;;;;5092263;28;20702;-56
2021/12/07 07:59:03;;;;;;;0.70;0.70;;;0.50;99.90;;;;;;5053527;28;20221;-55
2021/12/07 08:01:31;;;;;;;3.67;3.37;;;0.50;99.90;;;;;;5053847;28;20193;-50
2021/12/07 08:03:59;;;;;;;3.70;1.60;;;0.50;99.90;;;;;;5087081;28;20204;-54
2021/12/07 08:06:25;;;;;;;1.60;1.40;;;0.50;99.90;;;;;;5092012;28;20177;-57
2021/12/07 08:08:52;;;;;;;1.70;1.07;;;0.50;99.90;;;;;;5073848;28;20487;-55
2021/12/07 08:11:18;;;;;;;0.83;0.83;;;0.50;99.90;;;;;;5091715;28;20182;-58
2021/12/07 08:13:44;;;;;;;0.40;0.40;;;0.50;99.90;;;;;;5091025;28;20325;-56
2021/12/07 08:16:15;;;;;;;0.90;0.90;;;0.50;99.90;;;;;;5091406;28;20223;-54
2021/12/07 08:18:45;;;;;;;0.37;0.37;;;0.50;99.90;;;;;;5091823;28;20200;-54
2021/12/07 08:21:14;;;;;;;0.83;0.83;;;0.50;99.90;;;;;;5057144;28;20228;-62
2021/12/07 08:23:41;;;;;;;0.77;0.77;;;0.50;99.90;;;;;;5091530;28;20185;-52
2021/12/07 08:26:10;;;;;;;1.33;1.27;;;0.50;99.90;;;;;;5091909;28;20652;-56
2021/12/07 08:28:37;;;;;;;4.27;2.30;;;0.60;99.90;;;;;;5091077;28;20194;-55
2021/12/07 08:31:03;;;;;;;3.73;1.80;;;0.60;99.90;;;;;;5091371;28;20192;-52
2021/12/07 08:33:29;;;;;;;3.50;1.27;;;0.50;99.90;;;;;;5073221;28;20275;-58
2021/12/07 08:35:55;;;;;;;0.80;0.80;;;0.50;99.90;;;;;;5073824;28;20572;-53
2021/12/07 08:38:22;;;;;;;3.60;1.77;;;0.50;99.90;;;;;;5072363;28;20217;-55
2021/12/07 08:40:53;;;;;;;4.80;2.80;;;0.50;99.90;;;;;;5091167;28;20189;-54
2021/12/07 08:43:21;;;;;;;2.40;1.07;;;0.50;99.90;;;;;;5091032;28;20200;-59
2021/12/07 08:45:48;;;;;;;0.30;0.30;;;0.60;99.90;;;;;;5091514;28;20533;-52
2021/12/07 08:48:13;;;;;;;1.03;1.03;;;0.50;99.90;;;;;;5091224;28;20186;-62
2021/12/07 08:50:41;;;;;;;3.07;2.87;;;0.50;99.90;;;;;;5091110;28;20200;-56
2021/12/07 08:53:08;;;;;;;0.70;0.70;;;0.50;99.90;;;;;;5091094;28;20226;-54
2021/12/07 09:01:05;;;;;;;1.40;1.30;;;0.60;99.90;;;;;;5091844;28;20250;-57
2021/12/07 09:03:31;;;;;;;2.00;1.87;;;0.60;99.90;;;;;;5090845;28;20605;-56
2021/12/07 09:05:57;;;;;;;2.07;1.67;;;0.50;99.90;;;;;;5091108;28;20651;-55
2021/12/07 09:08:23;;;;;;;2.93;1.63;;;0.60;99.90;;;;;;5091141;28;20177;-53
2021/12/07 09:10:51;;;;;;;1.53;1.43;;;0.60;99.90;;;;;;5090885;28;20514;-53
2021/12/07 09:13:18;;;;;;;1.87;1.77;;;0.60;99.90;;;;;;5090061;28;20257;-56
2021/12/07 09:15:43;;;;;;;2.33;2.17;;;0.60;99.90;;;;;;5091045;28;20269;-54
2021/12/07 09:18:09;;;;;;;3.67;3.33;;;0.60;99.90;;;;;;5072221;28;20258;-56
2021/12/07 09:20:36;;;;;;;1.80;1.70;;;0.60;99.90;;;;;;5090014;28;20617;-57
2021/12/07 09:23:02;;;;;;;4.87;2.43;;;0.70;99.90;;;;;;5090907;28;20185;-55
2021/12/07 09:25:28;;;;;;;3.80;2.00;;;0.60;99.90;;;;;;5090583;28;20185;-52
2021/12/07 09:27:54;;;;;;;0.67;0.67;;;0.60;99.90;;;;;;5089730;28;20178;-55
2021/12/07 09:30:20;;;;;;;1.50;1.40;;;0.60;99.90;;;;;;5071231;28;20299;-57
2021/12/07 09:32:47;;;;;;;1.93;1.80;;;0.60;99.90;;;;;;5090591;28;20207;-54
2021/12/07 09:35:14;;;;;;;1.50;1.43;;;0.60;99.90;;;;;;5090389;28;20193;-55
2021/12/07 09:37:40;;;;;;;2.03;0.97;;;0.50;99.90;;;;;;5090029;28;20254;-57
2021/12/07 09:40:13;;;;;;;1.50;1.40;;;0.50;99.90;;;;;;5089716;28;20281;-58
2021/12/07 09:42:39;;;;;;;0.83;0.83;;;0.50;99.90;;;;;;5089909;28;20641;-55
2021/12/07 09:45:07;;;;;;;39.37;17.73;;;0.40;99.90;;;;;;5090343;28;20270;-56
2021/12/07 09:47:33;;;;;;;37.70;17.33;;;0.50;99.90;;;;;;5090128;28;20190;-53
2021/12/07 09:49:59;;;;;;;33.57;16.83;;;0.60;99.90;;;;;;5090643;28;20271;-57
2021/12/07 09:52:26;;;;;;;30.47;15.60;;;0.70;99.90;;;;;;5090039;28;20257;-55
2021/12/07 09:54:53;;;;;;;31.60;16.40;;;0.70;99.90;;;;;;5090382;28;20217;-53
2021/12/07 09:57:19;;;;;;;1.33;1.17;;;0.70;99.90;;;;;;5090038;28;20179;-55
2021/12/07 09:59:45;;;;;;;1.70;1.50;;;0.80;99.90;;;;;;5089782;28;20236;-56
2021/12/07 10:02:11;;;;;;;0.80;0.80;;;0.70;99.90;;;;;;5090328;28;20209;-60
2021/12/07 10:04:37;;;;;;;2.50;2.30;;;0.70;99.90;;;;;;5089812;28;20189;-53
2021/12/07 10:07:03;;;;;;;0.53;0.53;;;0.70;99.90;;;;;;5071599;28;20189;-52
2021/12/07 10:09:30;;;;;;;1.40;1.37;;;0.70;99.90;;;;;;5072228;28;20652;-55
2021/12/07 10:11:56;;;;;;;1.67;0.63;;;0.70;99.90;;;;;;5071817;28;20300;-55
2021/12/07 10:14:22;;;;;;;1.53;1.37;;;0.70;99.90;;;;;;5089576;28;20236;-56
2021/12/07 10:16:50;;;;;;;1.17;1.13;;;0.70;99.90;;;;;;5090433;28;20175;-57
2021/12/07 10:19:37;;;;;;;2.90;2.67;;;0.70;99.90;;;;;;5089498;28;20193;-62
2021/12/07 10:22:09;;;;;;;2.23;1.20;;;0.70;99.90;;;;;;5090536;28;20231;-58
2021/12/07 10:24:42;;;;;;;0.87;0.40;;;0.70;99.90;;;;;;5089189;28;20212;-59
2021/12/07 10:27:08;;;;;;;2.17;2.07;;;0.80;99.90;;;;;;5089431;28;20187;-59
2021/12/07 10:29:35;;;;;;;1.77;1.07;;;0.90;99.90;;;;;;5088813;28;20988;-62
2021/12/07 10:32:07;;;;;;;1.20;1.17;;;0.90;99.90;;;;;;5071428;28;20192;-56
2021/12/07 10:34:36;;;;;;;1.77;1.63;;;0.90;99.90;;;;;;5071496;28;20193;-59
2021/12/07 10:37:17;;;;;;;0.37;0.37;;;0.90;99.90;;;;;;5090126;28;20197;-58
2021/12/07 10:39:46;;;;;;;1.03;0.50;;;0.80;99.90;;;;;;5074357;28;20212;-63
2021/12/07 10:42:22;;;;;;;2.27;1.30;;;0.80;99.90;;;;;;5093014;28;20293;-64
2021/12/07 10:44:49;;;;;;;2.03;1.10;;;0.80;99.90;;;;;;5093875;28;20173;-61
2021/12/07 10:47:20;;;;;;;0.47;0.47;;;0.80;99.90;;;;;;5075499;28;20231;-66
2021/12/07 10:49:58;;;;;;;10.50;1.00;;;0.80;99.90;;;;;;5093709;28;20182;-57
2021/12/07 10:52:50;;;;;;;2.50;1.87;;;0.70;99.90;;;;;;5093257;28;20178;-58
2021/12/07 10:55:18;;;;;;;2.17;1.97;;;0.80;99.90;;;;;;5070562;28;20201;-67
2021/12/07 10:57:54;;;;;;;0.33;0.33;;;0.80;99.90;;;;;;5093054;28;20281;-62
2021/12/07 11:00:25;;;;;;;0.80;0.80;;;0.80;99.90;;;;;;5091814;28;20311;-55
2021/12/07 11:03:02;;;;;;;1.03;0.93;;;0.80;99.90;;;;;;5093336;28;20526;-57
2021/12/07 11:05:37;;;;;;;0.83;0.83;;;0.70;99.90;;;;;;5092786;28;20183;-49
2021/12/07 11:08:06;;;;;;;0.80;0.80;;;0.70;99.90;;;;;;5093556;28;20177;-55
2021/12/07 11:10:36;;;;;;;0.90;0.90;;;0.70;99.90;;;;;;5092721;28;20228;-60
2021/12/07 11:13:18;;;;;;;0.30;0.30;;;0.60;99.90;;;;;;5092943;28;20310;-54
2021/12/07 11:15:50;;;;;;;1.07;1.07;;;0.60;99.90;;;;;;5074593;28;20182;-63
2021/12/07 11:18:17;;;;;;;1.10;1.03;;;0.70;99.90;;;;;;5092752;28;20614;-63
2021/12/07 11:20:43;;;;;;;1.00;0.97;;;0.70;99.90;;;;;;5092863;28;20184;-55
2021/12/07 11:23:16;;;;;;;0.30;0.30;;;0.60;99.90;;;;;;5093163;28;20186;-53
2021/12/07 11:31:32;;;;;;;0.83;0.83;;;0.60;99.90;;;;;;5093193;28;20187;-56
2021/12/07 11:34:11;;;;;;;0.13;0.13;;;0.70;99.90;;;;;;5059334;28;20228;-56
2021/12/07 11:37:01;;;;;;;2.80;1.53;;;0.70;99.90;;;;;;5092408;28;20297;-57
2021/12/07 11:39:32;;;;;;;1.03;0.83;;;0.70;99.90;;;;;;5074233;28;20217;-54
2021/12/07 11:42:05;;;;;;;1.73;1.63;;;0.60;99.90;;;;;;5091942;28;20662;-55
2021/12/07 11:44:33;;;;;;;1.33;1.23;;;0.70;99.90;;;;;;5092108;28;20174;-60
2021/12/07 11:47:01;;;;;;;1.43;1.33;;;0.60;99.90;;;;;;5092548;28;20183;-54
2021/12/07 11:49:31;;;;;;;3.00;2.80;;;0.70;99.90;;;;;;5092383;28;20223;-54
2021/12/07 11:51:59;;;;;;;0.87;0.87;;;0.80;99.90;;;;;;5073614;28;20232;-54
2021/12/07 11:54:29;;;;;;;0.50;0.50;;;0.70;99.90;;;;;;5091820;28;20187;-58
2021/12/07 11:56:55;;;;;;;3.10;0.97;;;0.70;99.90;;;;;;5090511;28;20203;-56
2021/12/07 11:59:22;;;;;;;1.43;1.33;;;0.80;99.90;;;;;;5090753;28;20241;-57
2021/12/07 12:01:49;;;;;;;1.17;1.13;;;0.80;99.90;;;;;;5090684;28;20227;-52
2021/12/07 12:04:17;;;;;;;0.27;0.20;;;0.70;99.90;;;;;;5091915;28;20186;-51
2021/12/07 12:06:46;;;;;;;1.97;1.43;;;0.80;99.90;;;;;;5092220;28;20220;-56
2021/12/07 12:09:13;;;;;;;1.70;1.23;;;0.70;99.90;;;;;;5091892;28;20225;-57
2021/12/07 12:11:59;;;;;;;0.37;0.37;;;0.70;99.90;;;;;;5091429;28;20190;-56
2021/12/07 12:14:37;;;;;;;3.60;1.47;;;0.70;99.90;;;;;;5089822;28;20296;-54
2021/12/07 12:17:29;;;;;;;0.70;0.70;;;0.60;99.90;;;;;;5083626;28;20207;-57
2021/12/07 12:20:16;;;;;;;0.77;0.77;;;0.60;99.90;;;;;;5089789;28;20297;-58
2021/12/07 12:22:51;;;;;;;1.13;1.13;;;0.60;99.90;;;;;;5089163;28;20240;-57
2021/12/07 12:25:21;;;;;;;0.30;0.30;;;0.60;99.90;;;;;;5091186;28;20271;-57
2021/12/07 12:27:49;;;;;;;0.30;0.30;;;0.70;99.90;;;;;;5090509;28;20181;-56
2021/12/07 12:30:32;;;;;;;0.10;0.10;;;0.60;99.90;;;;;;5090994;28;20568;-52
2021/12/07 12:33:05;;;;;;;0.30;0.30;;;0.60;99.90;;;;;;5071527;28;20662;-56
2021/12/07 12:35:38;;;;;;;0.50;0.50;;;0.50;99.90;;;;;;5110559;28;20180;-54
2021/12/07 12:38:19;;;;;;;1.60;1.50;;;0.50;99.90;;;;;;5110314;28;20172;-58
2021/12/07 12:40:58;;;;;;;0.77;0.77;;;0.50;99.90;;;;;;5110269;28;20590;-59
2021/12/07 12:43:45;;;;;;;0.43;0.43;;;0.50;99.90;;;;;;5109940;28;20274;-55
2021/12/07 12:46:15;;;;;;;0.60;0.50;;;0.50;99.90;;;;;;5110506;28;20176;-54
2021/12/07 12:48:49;;;;;;;0.87;0.60;;;0.50;99.90;;;;;;5110043;28;20583;-54
2021/12/07 12:51:16;;;;;;;0.53;0.53;;;0.40;99.90;;;;;;5111642;28;20653;-57
2021/12/07 12:53:44;;;;;;;1.30;1.20;;;0.40;99.90;;;;;;5111768;28;20177;-55
2021/12/07 12:56:20;;;;;;;0.87;0.87;;;0.50;99.90;;;;;;5093683;28;20323;-53
2021/12/07 12:58:56;;;;;;;1.43;1.33;;;0.50;99.90;;;;;;5111292;28;20204;-55
2021/12/07 13:01:24;;;;;;;1.03;0.70;;;0.50;99.90;;;;;;5091500;28;20583;-58
2021/12/07 13:03:55;;;;;;;1.50;0.83;;;0.50;99.90;;;;;;5090038;28;20282;-55
2021/12/07 13:06:46;;;;;;;0.50;0.50;;;0.40;99.90;;;;;;5091275;28;20219;-67
2021/12/07 13:09:18;;;;;;;1.20;1.13;;;0.40;99.90;;;;;;5091880;28;20650;-54
2021/12/07 13:12:06;;;;;;;0.53;0.53;;;0.40;99.90;;;;;;5091384;28;20474;-57
2021/12/07 13:14:39;;;;;;;2.67;1.30;;;0.40;99.90;;;;;;5091022;28;20298;-53
2021/12/07 13:17:24;;;;;;;0.10;0.10;;;0.40;99.90;;;;;;5084935;28;20284;-55
2021/12/07 13:20:10;;;;;;;1.33;1.23;;;0.40;99.90;;;;;;5091940;28;20208;-53
2021/12/07 13:23:00;;;;;;;0.73;0.73;;;0.30;99.90;;;;;;5091188;28;20189;-53
2021/12/07 13:25:33;;;;;;;0.10;0.10;;;0.30;99.90;;;;;;5091076;28;20265;-55
2021/12/07 13:28:11;;;;;;;1.23;1.00;;;0.30;99.90;;;;;;5091126;28;20177;-55
2021/12/07 13:30:49;;;;;;;1.20;1.10;;;0.20;99.90;;;;;;5091117;28;20174;-54
2021/12/07 13:33:30;;;;;;;0.43;0.43;;;0.20;99.90;;;;;;5091329;28;20180;-57
2021/12/07 13:35:56;;;;;;;0.63;0.63;;;0.20;99.90;;;;;;5091323;28;20186;-56
2021/12/07 13:38:30;;;;;;;0.60;0.60;;;0.20;99.90;;;;;;5073121;28;20689;-53
2021/12/07 13:41:14;;;;;;;2.17;1.60;;;0.20;99.90;;;;;;5091641;28;20275;-54
2021/12/07 13:43:46;;;;;;;1.17;1.17;;;0.20;99.90;;;;;;5091127;28;20209;-52
2021/12/07 13:46:21;;;;;;;2.43;1.07;;;0.20;99.90;;;;;;5091482;28;20215;-54
2021/12/07 13:48:50;;;;;;;1.90;1.80;;;0.20;99.90;;;;;;5072666;28;20157;-53
2021/12/07 13:51:19;;;;;;;2.07;1.90;;;0.20;99.90;;;;;;5091366;28;20262;-55
2021/12/07 13:53:46;;;;;;;2.13;2.00;;;0.20;99.90;;;;;;5091030;28;20178;-53
2021/12/07 13:56:13;;;;;;;0.90;0.90;;;0.20;99.90;;;;;;5089660;28;20259;-51
2021/12/07 13:58:58;;;;;;;0.77;0.60;;;0.20;99.90;;;;;;5088943;28;20201;-56
2021/12/07 14:01:28;;;;;;;0.60;0.60;;;0.20;99.90;;;;;;5089277;28;20210;-66
2021/12/07 14:03:56;;;;;;;2.43;2.17;;;0.10;99.90;;;;;;5071015;28;20487;-59
2021/12/07 14:06:22;;;;;;;2.53;1.43;;;0.20;99.90;;;;;;5071254;28;20193;-58
2021/12/07 14:08:49;;;;;;;0.10;0.10;;;0.10;99.90;;;;;;5088418;28;20190;-67
2021/12/07 14:11:16;;;;;;;0.53;0.50;;;0.10;99.90;;;;;;5070657;28;20354;-55
2021/12/07 14:13:44;;;;;;;5.30;2.73;;;0.10;99.90;;;;;;5089470;28;20220;-56
2021/12/07 14:16:12;;;;;;;0.30;0.30;;;0.00;99.90;;;;;;5093371;28;20181;-63
2021/12/07 14:18:41;;;;;;;1.47;1.37;;;0.00;99.90;;;;;;5092502;28;20253;-58
2021/12/07 14:21:07;;;;;;;1.70;1.60;;;0.00;99.90;;;;;;5093267;28;20176;-62
2021/12/07 14:23:45;;;;;;;0.73;0.73;;;0.10;99.90;;;;;;5091797;28;20620;-56
2021/12/07 14:26:20;;;;;;;0.57;0.57;;;0.10;99.90;;;;;;5092729;28;20166;-62
2021/12/07 14:29:04;;;;;;;0.30;0.30;;;0.10;99.90;;;;;;5092383;28;20161;-56
2021/12/07 14:31:36;;;;;;;1.37;1.07;;;0.10;99.90;;;;;;5092500;28;20203;-55
2021/12/07 14:34:09;;;;;;;2.60;1.73;;;0.10;99.90;;;;;;5092620;28;20198;-60
2021/12/07 14:36:43;;;;;;;0.33;0.33;;;0.10;99.90;;;;;;5092048;28;20270;-57